Milo, Oklahoma
Current Conditions -  °F | °C
As of 9:55 AM on Sunday 25 Jan 2015 (Local Time) from K1F0 Reporting Station
Clear Clear  
Wind Chill: 55°   Ceiling: Unl
Heat Index: 55°   Visibility: 10mi
Dew Point: 32°   Wind: 10mph
Humidity: 41%   Direction: 320°NW
Pressure: 30.02"   Gusts: 20mph
Location:  34.2137°N, 97.1822°W
Report Text: K1F0 251555Z AUTO 32009G17KT 290V360 10SM CLR 13/00 A3002 RMK AO2
Loading
Personal Weather Stations






























Interactive Weather Map New forecast layout! Learn more

10-Day Weather Forecast

Advertisements
Track Severe Weather on mobile